createdAt,value
2018-08-13T00:02:04.505Z,23.00
2018-08-13T00:04:35.391Z,23.00
2018-08-13T00:07:06.218Z,23.00
2018-08-13T00:09:42.206Z,23.00
2018-08-13T00:12:14.061Z,23.00
2018-08-13T00:14:45.018Z,23.10
2018-08-13T00:17:15.647Z,23.10
2018-08-13T00:19:46.696Z,23.10
2018-08-13T00:22:17.494Z,23.20
2018-08-13T00:24:48.219Z,23.20
2018-08-13T00:27:18.949Z,23.30
2018-08-13T00:29:50.106Z,23.30
2018-08-13T00:32:20.888Z,23.40
2018-08-13T00:34:51.537Z,23.40
2018-08-13T00:37:22.149Z,23.50
2018-08-13T00:39:53.950Z,23.40
2018-08-13T00:42:24.951Z,23.50
2018-08-13T00:44:56.018Z,23.50
2018-08-13T00:47:27.061Z,23.50
2018-08-13T00:49:57.644Z,23.50
2018-08-13T00:52:28.713Z,23.50
2018-08-13T00:54:59.365Z,23.50
2018-08-13T00:57:29.993Z,23.50
2018-08-13T01:00:01.422Z,23.50
2018-08-13T01:02:32.228Z,23.40
2018-08-13T01:05:03.451Z,23.80
2018-08-13T01:07:34.205Z,23.50
2018-08-13T01:10:07.245Z,23.60
2018-08-13T01:12:38.430Z,23.60
2018-08-13T01:15:11.213Z,23.60
2018-08-13T01:17:43.751Z,23.60
2018-08-13T01:20:16.339Z,23.50
2018-08-13T01:22:47.112Z,23.50
2018-08-13T01:25:20.038Z,23.40
2018-08-13T01:27:50.724Z,23.40
2018-08-13T01:30:21.999Z,23.30
2018-08-13T01:32:52.557Z,23.30
2018-08-13T01:35:23.626Z,23.30
2018-08-13T01:37:54.462Z,23.20
2018-08-13T01:40:28.312Z,23.20
2018-08-13T01:42:58.986Z,23.20
2018-08-13T01:45:29.536Z,23.20
2018-08-13T01:48:00.286Z,23.20
2018-08-13T01:50:31.166Z,23.10
2018-08-13T01:53:02.056Z,23.10
2018-08-13T01:55:32.986Z,23.10
2018-08-13T01:58:03.650Z,23.10
2018-08-13T02:00:34.635Z,23.10
2018-08-13T02:03:06.442Z,23.00
2018-08-13T02:05:37.138Z,23.00
2018-08-13T02:08:08.071Z,23.00
2018-08-13T02:10:38.976Z,22.80
2018-08-13T02:13:10.010Z,22.90
2018-08-13T02:15:40.823Z,22.90
2018-08-13T02:18:11.457Z,22.90
2018-08-13T02:20:42.082Z,22.90
2018-08-13T02:23:12.622Z,22.90
2018-08-13T02:25:43.270Z,22.90
2018-08-13T02:28:16.029Z,22.90
2018-08-13T02:30:46.681Z,23.00
2018-08-13T02:33:17.342Z,23.10
2018-08-13T02:35:47.887Z,23.10
2018-08-13T02:38:18.922Z,23.10
2018-08-13T02:40:49.491Z,23.20
2018-08-13T02:43:20.177Z,23.20
2018-08-13T02:45:50.837Z,23.30
2018-08-13T02:48:22.559Z,23.40
2018-08-13T02:50:53.541Z,23.40
2018-08-13T02:53:24.506Z,23.50
2018-08-13T02:55:55.198Z,23.50
2018-08-13T02:58:26.153Z,23.60
2018-08-13T03:00:57.295Z,23.60
2018-08-13T03:03:28.137Z,23.70
2018-08-13T03:05:59.618Z,23.70
2018-08-13T03:08:30.256Z,23.70
2018-08-13T03:11:01.187Z,23.70
2018-08-13T03:13:32.203Z,23.70
2018-08-13T03:16:02.869Z,25.40
2018-08-13T03:18:33.565Z,23.80
2018-08-13T03:21:04.882Z,23.80
2018-08-13T03:23:36.005Z,23.80
2018-08-13T03:26:07.700Z,23.80
2018-08-13T03:28:38.558Z,23.70
2018-08-13T03:31:09.733Z,23.80
2018-08-13T03:33:41.071Z,23.80
2018-08-13T03:36:11.638Z,22.70
2018-08-13T03:38:42.277Z,23.80
2018-08-13T03:41:13.220Z,23.80
2018-08-13T03:43:44.318Z,23.90
2018-08-13T03:46:14.987Z,23.80
2018-08-13T03:48:46.345Z,23.80
2018-08-13T03:51:17.122Z,23.80
2018-08-13T03:53:48.148Z,23.80
2018-08-13T03:56:18.848Z,23.80
2018-08-13T03:58:49.492Z,23.80
2018-08-13T04:01:20.363Z,23.80
2018-08-13T04:03:52.014Z,23.80
2018-08-13T04:06:23.119Z,23.80
2018-08-13T04:08:54.067Z,23.70
2018-08-13T04:11:24.988Z,23.80
2018-08-13T04:13:55.577Z,23.80
2018-08-13T04:16:26.948Z,23.70
2018-08-13T04:18:57.777Z,23.70
2018-08-13T04:21:28.290Z,23.70
2018-08-13T04:23:59.189Z,23.60
2018-08-13T04:26:30.341Z,23.60
2018-08-13T04:29:01.169Z,23.50
2018-08-13T04:31:31.785Z,23.60
2018-08-13T04:34:02.413Z,23.50
2018-08-13T04:36:33.254Z,23.40
2018-08-13T04:39:05.974Z,23.30
2018-08-13T04:41:36.993Z,23.20
2018-08-13T04:44:07.592Z,23.10
2018-08-13T04:46:38.818Z,23.00
2018-08-13T04:49:09.540Z,22.90
2018-08-13T04:51:40.120Z,22.80
2018-08-13T04:54:11.093Z,22.70
2018-08-13T04:56:41.672Z,22.50
2018-08-13T04:59:12.225Z,22.40
2018-08-13T05:01:43.197Z,22.30
2018-08-13T05:04:14.405Z,22.20
2018-08-13T05:06:45.350Z,22.20
2018-08-13T05:09:16.490Z,22.10
2018-08-13T05:11:47.240Z,22.00
2018-08-13T05:14:17.981Z,21.90
2018-08-13T05:16:49.192Z,21.80
2018-08-13T05:19:19.872Z,21.70
2018-08-13T05:21:50.385Z,21.60
2018-08-13T05:24:21.351Z,21.60
2018-08-13T05:26:51.960Z,21.40
2018-08-13T05:29:22.820Z,21.40
2018-08-13T05:31:53.393Z,21.40
2018-08-13T05:34:24.287Z,21.40
2018-08-13T05:36:55.313Z,21.30
2018-08-13T05:39:26.491Z,21.30
2018-08-13T05:41:57.061Z,21.30
2018-08-13T05:44:27.946Z,21.30
2018-08-13T05:46:58.886Z,21.20
2018-08-13T05:49:29.501Z,21.30
2018-08-13T05:52:00.451Z,21.30
2018-08-13T05:54:31.278Z,21.30
2018-08-13T05:57:01.881Z,21.30
2018-08-13T05:59:32.692Z,21.30
2018-08-13T06:02:03.639Z,21.30
2018-08-13T06:04:34.623Z,21.30
2018-08-13T06:07:06.017Z,21.30
2018-08-13T06:09:36.593Z,21.30
2018-08-13T06:12:08.036Z,21.30
2018-08-13T06:14:38.676Z,21.30
2018-08-13T06:17:09.261Z,21.30
2018-08-13T06:19:40.089Z,23.50
2018-08-13T06:22:11.475Z,21.20
2018-08-13T06:24:42.171Z,21.10
2018-08-13T06:27:12.930Z,21.10
2018-08-13T06:29:43.552Z,21.10
2018-08-13T06:32:14.969Z,21.00
2018-08-13T06:34:45.765Z,21.00
2018-08-13T06:37:17.229Z,21.00
2018-08-13T06:39:47.972Z,21.00
2018-08-13T06:42:18.675Z,21.00
2018-08-13T06:44:49.625Z,21.10
2018-08-13T06:47:20.537Z,21.10
2018-08-13T06:49:51.241Z,21.20
2018-08-13T06:52:21.895Z,21.20
2018-08-13T06:54:52.521Z,21.30
2018-08-13T06:57:23.340Z,21.40
2018-08-13T06:59:54.001Z,21.40
2018-08-13T07:02:24.584Z,21.50
2018-08-13T07:04:55.248Z,21.50
2018-08-13T07:07:26.336Z,21.50
2018-08-13T07:09:56.902Z,21.50
2018-08-13T07:12:28.955Z,21.60
2018-08-13T07:14:59.680Z,21.70
2018-08-13T07:17:30.515Z,21.70
2018-08-13T07:20:01.514Z,21.80
2018-08-13T07:22:32.306Z,21.80
2018-08-13T07:25:04.022Z,21.90
2018-08-13T07:27:34.615Z,21.90
2018-08-13T07:30:07.491Z,21.90
2018-08-13T07:32:38.512Z,22.00
2018-08-13T07:35:09.774Z,22.00
2018-08-13T07:37:40.494Z,22.00
2018-08-13T07:40:15.800Z,21.90
2018-08-13T07:42:46.880Z,22.10
2018-08-13T07:45:17.565Z,22.10
2018-08-13T07:47:48.946Z,22.10
2018-08-13T07:50:19.588Z,22.10
2018-08-13T07:52:50.790Z,22.10
2018-08-13T07:55:22.159Z,22.10
2018-08-13T07:57:53.327Z,22.10
2018-08-13T08:00:24.239Z,22.20
2018-08-13T08:02:54.821Z,22.20
2018-08-13T08:05:26.165Z,22.20
2018-08-13T08:07:57.369Z,22.20
2018-08-13T08:10:28.162Z,22.30
2018-08-13T08:12:59.304Z,22.30
2018-08-13T08:15:29.994Z,22.40
2018-08-13T08:18:00.573Z,22.40
2018-08-13T08:20:31.673Z,22.40
2018-08-13T08:23:03.125Z,22.50
2018-08-13T08:25:34.100Z,22.50
2018-08-13T08:28:04.947Z,22.60
2018-08-13T08:30:35.962Z,22.60
2018-08-13T08:33:07.689Z,22.60
2018-08-13T08:35:38.521Z,22.70
2018-08-13T08:38:10.171Z,22.70
2018-08-13T08:40:41.342Z,22.70
2018-08-13T08:43:11.985Z,22.60
2018-08-13T08:45:42.823Z,22.70
2018-08-13T08:48:14.078Z,22.70
2018-08-13T08:50:45.059Z,22.60
2018-08-13T08:53:15.910Z,22.60
2018-08-13T08:55:46.876Z,22.60
2018-08-13T08:58:18.077Z,22.60
2018-08-13T09:00:49.815Z,22.60
2018-08-13T09:03:20.885Z,22.60
2018-08-13T09:05:52.784Z,22.60
2018-08-13T09:08:23.584Z,22.60
2018-08-13T09:10:54.563Z,22.70
2018-08-13T09:13:26.586Z,22.80
2018-08-13T09:15:57.393Z,22.80
2018-08-13T09:18:44.876Z,23.00
2018-08-13T09:21:33.669Z,23.00
2018-08-13T09:24:21.418Z,23.10
2018-08-13T09:27:09.393Z,23.10
2018-08-13T09:29:56.861Z,23.20
2018-08-13T09:32:44.560Z,23.20
2018-08-13T09:35:35.388Z,23.20
2018-08-13T09:38:13.051Z,23.20
2018-08-13T09:40:44.701Z,22.30
2018-08-13T09:43:15.899Z,23.30
2018-08-13T09:45:46.646Z,23.30
2018-08-13T09:48:17.988Z,23.40
2018-08-13T09:50:48.912Z,23.50
2018-08-13T09:53:24.688Z,23.50
2018-08-13T09:56:02.173Z,23.60
2018-08-13T09:58:34.268Z,23.70
2018-08-13T10:01:11.276Z,23.70
2018-08-13T10:03:42.141Z,23.70
2018-08-13T10:06:14.369Z,23.70
2018-08-13T10:08:45.170Z,23.70
2018-08-13T10:11:15.857Z,23.70
2018-08-13T10:13:50.164Z,23.80
2018-08-13T10:16:21.934Z,23.80
2018-08-13T10:18:52.778Z,23.90
2018-08-13T10:21:24.698Z,24.00
2018-08-13T10:23:56.051Z,24.00
2018-08-13T10:26:27.959Z,24.10
2018-08-13T10:28:58.780Z,24.20
2018-08-13T10:31:31.049Z,24.40
2018-08-13T10:34:02.861Z,24.60
2018-08-13T10:36:38.091Z,24.90
2018-08-13T10:39:11.152Z,25.30
2018-08-13T10:41:42.482Z,26.30
2018-08-13T10:44:13.895Z,26.40
2018-08-13T10:46:46.221Z,26.80
2018-08-13T10:49:17.676Z,27.30
2018-08-13T10:51:49.428Z,27.80
2018-08-13T10:54:21.024Z,28.20
2018-08-13T10:56:55.903Z,28.60
2018-08-13T10:59:27.130Z,28.80
2018-08-13T11:01:59.245Z,29.00
2018-08-13T11:04:32.124Z,29.50
2018-08-13T11:07:03.583Z,29.00
2018-08-13T11:09:35.138Z,28.90
2018-08-13T11:12:07.471Z,28.70
2018-08-13T11:14:38.890Z,28.60
2018-08-13T11:17:10.422Z,28.40
2018-08-13T11:19:44.542Z,28.40
2018-08-13T11:22:16.693Z,28.30
2018-08-13T11:24:48.455Z,28.20
2018-08-13T11:27:19.210Z,28.10
2018-08-13T11:29:50.326Z,27.90
2018-08-13T11:32:22.320Z,27.70
2018-08-13T11:34:53.086Z,27.60
2018-08-13T11:37:24.139Z,27.40
2018-08-13T11:39:55.287Z,27.20
2018-08-13T11:42:26.255Z,27.10
2018-08-13T11:44:57.453Z,27.00
2018-08-13T11:47:28.305Z,26.90
2018-08-13T11:50:00.538Z,27.00
2018-08-13T11:52:32.355Z,27.30
2018-08-13T11:55:04.989Z,27.70
2018-08-13T11:57:37.744Z,28.10
2018-08-13T12:00:15.442Z,28.40
2018-08-13T12:02:48.707Z,28.80
2018-08-13T12:05:20.053Z,29.10
2018-08-13T12:07:51.434Z,29.20
2018-08-13T12:10:23.995Z,29.30
2018-08-13T12:12:55.505Z,29.30
2018-08-13T12:15:26.925Z,29.30
2018-08-13T12:17:58.926Z,29.30
2018-08-13T12:20:31.189Z,29.20
2018-08-13T12:23:04.687Z,29.00
2018-08-13T12:25:37.203Z,28.80
2018-08-13T12:28:09.299Z,28.50
2018-08-13T12:30:40.181Z,28.20
2018-08-13T12:33:11.367Z,27.90
2018-08-13T12:35:43.091Z,27.60
2018-08-13T12:38:14.067Z,27.40
2018-08-13T12:40:46.085Z,27.20
2018-08-13T12:43:18.403Z,26.80
2018-08-13T12:45:49.942Z,26.60
2018-08-13T12:48:21.504Z,26.30
2018-08-13T12:50:52.842Z,26.10
2018-08-13T12:53:25.351Z,25.90
2018-08-13T12:55:57.152Z,25.70
2018-08-13T12:58:28.194Z,25.60
2018-08-13T13:01:01.434Z,25.50
2018-08-13T13:03:34.288Z,25.40
2018-08-13T13:06:05.254Z,25.30
2018-08-13T13:08:37.192Z,25.30
2018-08-13T13:11:09.505Z,25.40
2018-08-13T13:13:42.074Z,25.60
2018-08-13T13:16:15.045Z,25.80
2018-08-13T13:18:47.546Z,26.00
2018-08-13T13:21:19.207Z,26.30
2018-08-13T13:23:53.291Z,26.50
2018-08-13T13:26:26.107Z,26.60
2018-08-13T13:28:57.289Z,26.70
2018-08-13T13:31:29.647Z,26.70
2018-08-13T13:34:01.322Z,26.70
2018-08-13T13:36:34.448Z,26.90
2018-08-13T13:39:10.329Z,26.80
2018-08-13T13:41:41.043Z,26.90
2018-08-13T13:44:12.085Z,27.00
2018-08-13T13:46:43.817Z,27.00
2018-08-13T13:49:16.294Z,27.10
2018-08-13T13:51:52.226Z,27.10
2018-08-13T13:54:23.413Z,27.20
2018-08-13T13:56:54.781Z,27.20
2018-08-13T13:59:26.350Z,27.20
2018-08-13T14:01:57.889Z,27.10
2018-08-13T14:04:29.746Z,27.00
2018-08-13T14:07:00.566Z,26.90
2018-08-13T14:09:31.642Z,26.70
2018-08-13T14:12:04.194Z,26.60
2018-08-13T14:14:35.398Z,26.30
2018-08-13T14:17:07.396Z,25.80
2018-08-13T14:19:41.408Z,25.30
2018-08-13T14:22:13.211Z,24.80
2018-08-13T14:24:46.172Z,24.30
2018-08-13T14:27:17.289Z,23.80
2018-08-13T14:29:48.650Z,23.40
2018-08-13T14:32:21.239Z,23.10
2018-08-13T14:34:52.328Z,22.80
2018-08-13T14:37:23.350Z,22.60
2018-08-13T14:39:55.199Z,22.50
2018-08-13T14:42:26.954Z,22.30
2018-08-13T14:44:58.428Z,22.30
2018-08-13T14:47:29.909Z,22.20
2018-08-13T14:50:09.822Z,22.20
2018-08-13T14:52:44.797Z,22.20
2018-08-13T14:55:20.297Z,22.20
2018-08-13T14:57:51.909Z,22.20
2018-08-13T15:00:33.720Z,22.20
2018-08-13T15:03:04.768Z,22.20
2018-08-13T15:05:36.171Z,22.20
2018-08-13T15:08:07.459Z,22.20
2018-08-13T15:10:41.158Z,22.30
2018-08-13T15:13:13.321Z,23.00
2018-08-13T15:15:44.297Z,22.30
2018-08-13T15:18:15.090Z,22.40
2018-08-13T15:20:46.064Z,22.60
2018-08-13T15:23:17.593Z,22.50
2018-08-13T15:25:52.080Z,22.50
2018-08-13T15:28:23.963Z,22.60
2018-08-13T15:30:55.463Z,22.60
2018-08-13T15:33:28.242Z,22.60
2018-08-13T15:35:59.044Z,22.50
2018-08-13T15:38:31.431Z,22.60
2018-08-13T15:41:06.939Z,22.60
2018-08-13T15:43:38.071Z,22.60
2018-08-13T15:46:09.301Z,22.50
2018-08-13T15:48:41.106Z,22.50
2018-08-13T15:51:13.958Z,22.50
2018-08-13T15:53:45.517Z,22.50
2018-08-13T15:56:17.751Z,22.50
2018-08-13T15:58:49.412Z,22.60
2018-08-13T16:01:20.303Z,22.60
2018-08-13T16:03:53.987Z,22.60
2018-08-13T16:06:25.377Z,22.70
2018-08-13T16:08:57.350Z,22.70
2018-08-13T16:11:29.098Z,22.70
2018-08-13T16:14:00.001Z,22.80
2018-08-13T16:16:31.953Z,22.80
2018-08-13T16:19:02.700Z,22.70
2018-08-13T16:21:34.089Z,22.70
2018-08-13T16:24:05.230Z,22.70
2018-08-13T16:26:36.165Z,22.70
2018-08-13T16:29:08.101Z,22.70
2018-08-13T16:31:39.299Z,22.70
2018-08-13T16:34:10.396Z,22.70
2018-08-13T16:36:42.221Z,22.70
2018-08-13T16:39:13.490Z,22.80
2018-08-13T16:41:46.168Z,22.90
2018-08-13T16:44:16.854Z,22.80
2018-08-13T16:46:47.774Z,22.90
2018-08-13T16:49:18.666Z,22.80
2018-08-13T16:51:50.216Z,22.80
2018-08-13T16:54:25.809Z,22.80
2018-08-13T16:57:00.259Z,22.80
2018-08-13T16:59:33.585Z,22.80
2018-08-13T17:02:06.873Z,22.80
2018-08-13T17:04:39.155Z,22.70
2018-08-13T17:07:12.843Z,22.70
2018-08-13T17:09:45.837Z,22.80
2018-08-13T17:12:23.638Z,22.70
2018-08-13T17:14:59.495Z,22.70
2018-08-13T17:17:36.372Z,22.70
2018-08-13T17:20:12.953Z,22.60
2018-08-13T17:22:45.109Z,22.60
2018-08-13T17:25:18.934Z,22.60
2018-08-13T17:27:53.150Z,23.40
2018-08-13T17:30:27.660Z,22.50
2018-08-13T17:33:03.446Z,22.50
2018-08-13T17:35:37.729Z,22.50
2018-08-13T17:38:11.417Z,22.50
2018-08-13T17:40:45.360Z,22.50
2018-08-13T17:43:16.341Z,22.50
2018-08-13T17:45:47.472Z,22.50
2018-08-13T17:48:18.663Z,22.50
2018-08-13T17:50:49.409Z,22.50
2018-08-13T17:53:20.470Z,22.50
2018-08-13T17:55:51.937Z,22.40
2018-08-13T17:58:23.494Z,22.50
2018-08-13T18:00:54.766Z,22.40
2018-08-13T18:03:25.780Z,22.40
2018-08-13T18:06:02.708Z,22.30
2018-08-13T18:08:34.160Z,22.30
2018-08-13T18:11:06.159Z,22.30
2018-08-13T18:13:37.973Z,22.30
2018-08-13T18:16:09.876Z,22.30
2018-08-13T18:18:41.308Z,22.30
2018-08-13T18:21:14.489Z,22.30
2018-08-13T18:23:46.204Z,22.20
2018-08-13T18:26:17.383Z,22.10
2018-08-13T18:28:48.469Z,22.10
2018-08-13T18:31:19.185Z,22.10
2018-08-13T18:33:49.915Z,22.10
2018-08-13T18:36:21.932Z,22.00
2018-08-13T18:38:53.141Z,22.00
2018-08-13T18:41:23.811Z,21.90
2018-08-13T18:43:55.360Z,21.80
2018-08-13T18:46:26.636Z,21.80
2018-08-13T18:48:57.263Z,21.70
2018-08-13T18:51:28.200Z,21.60
2018-08-13T18:53:59.283Z,21.60
2018-08-13T18:56:31.499Z,21.50
2018-08-13T18:59:03.686Z,21.50
2018-08-13T19:01:35.109Z,21.40
2018-08-13T19:04:08.802Z,21.40
2018-08-13T19:06:39.891Z,21.30
2018-08-13T19:09:12.411Z,21.30
2018-08-13T19:11:45.296Z,21.20
2018-08-13T19:14:17.358Z,21.20
2018-08-13T19:16:48.866Z,21.10
2018-08-13T19:19:20.534Z,21.00
2018-08-13T19:21:52.561Z,21.00
2018-08-13T19:24:24.191Z,20.90
2018-08-13T19:26:57.253Z,20.90
2018-08-13T19:29:28.106Z,20.90
2018-08-13T19:31:59.772Z,20.90
2018-08-13T19:34:30.422Z,20.70
2018-08-13T19:37:03.329Z,20.80
2018-08-13T19:39:34.762Z,20.80
2018-08-13T19:42:05.644Z,20.70
2018-08-13T19:44:37.272Z,20.70
2018-08-13T19:47:09.864Z,20.70
2018-08-13T19:49:40.630Z,20.70
2018-08-13T19:52:13.176Z,20.70
2018-08-13T19:54:43.852Z,20.60
2018-08-13T19:57:14.979Z,20.60
2018-08-13T19:59:47.357Z,20.60
2018-08-13T20:02:18.325Z,20.60
2018-08-13T20:04:48.963Z,20.60
2018-08-13T20:07:19.967Z,20.60
2018-08-13T20:09:51.896Z,20.60
2018-08-13T20:12:23.051Z,20.60
2018-08-13T20:14:53.710Z,20.60
2018-08-13T20:17:26.655Z,20.60
2018-08-13T20:19:58.217Z,20.60
2018-08-13T20:22:29.691Z,20.60
2018-08-13T20:25:01.877Z,20.60
2018-08-13T20:27:33.782Z,20.60
2018-08-13T20:30:05.468Z,20.60
2018-08-13T20:32:38.223Z,20.60
2018-08-13T20:35:09.342Z,20.60
2018-08-13T20:37:41.074Z,20.60
2018-08-13T20:40:15.024Z,20.60
2018-08-13T20:42:49.414Z,20.60
2018-08-13T20:45:22.087Z,20.60
2018-08-13T20:47:53.449Z,20.60
2018-08-13T20:50:26.006Z,20.60
2018-08-13T20:52:56.753Z,20.50
2018-08-13T20:55:29.853Z,20.50
2018-08-13T20:58:00.894Z,20.50
2018-08-13T21:00:33.113Z,20.50
2018-08-13T21:03:04.116Z,20.50
2018-08-13T21:05:35.048Z,20.50
2018-08-13T21:08:06.654Z,20.40
2018-08-13T21:10:37.375Z,20.50
2018-08-13T21:13:08.946Z,20.50
2018-08-13T21:15:42.635Z,20.40
2018-08-13T21:18:14.514Z,20.40
2018-08-13T21:20:50.500Z,20.40
2018-08-13T21:23:22.175Z,20.30
2018-08-13T21:25:53.607Z,20.40
2018-08-13T21:28:24.306Z,20.30
2018-08-13T21:30:55.330Z,20.30
2018-08-13T21:33:30.656Z,20.30
2018-08-13T21:36:01.797Z,20.30
2018-08-13T21:38:32.494Z,20.30
2018-08-13T21:41:03.649Z,20.20
2018-08-13T21:43:34.796Z,20.20
2018-08-13T21:46:05.505Z,20.10
2018-08-13T21:48:36.260Z,20.10
2018-08-13T21:51:08.111Z,20.10
2018-08-13T21:53:40.012Z,20.10
2018-08-13T21:56:10.652Z,20.10
2018-08-13T21:58:41.740Z,20.10
2018-08-13T22:01:17.724Z,20.00
2018-08-13T22:03:50.484Z,20.00
2018-08-13T22:06:21.629Z,20.00
2018-08-13T22:08:53.083Z,20.00
2018-08-13T22:11:25.457Z,19.90
2018-08-13T22:13:57.383Z,19.90
2018-08-13T22:16:28.971Z,19.90
2018-08-13T22:19:01.399Z,19.90
2018-08-13T22:21:32.139Z,19.90
2018-08-13T22:24:21.211Z,19.80
2018-08-13T22:26:53.664Z,19.80
2018-08-13T22:29:25.427Z,19.80
2018-08-13T22:31:56.919Z,19.80
2018-08-13T22:34:27.989Z,19.80
2018-08-13T22:36:59.692Z,19.80
2018-08-13T22:39:30.744Z,19.30
2018-08-13T22:42:02.935Z,19.80
2018-08-13T22:44:34.605Z,19.80
2018-08-13T22:47:06.574Z,19.80
2018-08-13T22:49:37.613Z,19.70
2018-08-13T22:52:09.104Z,19.80
2018-08-13T22:54:40.725Z,19.80
2018-08-13T22:57:13.320Z,19.80
2018-08-13T22:59:43.996Z,19.70
2018-08-13T23:02:15.761Z,19.90
2018-08-13T23:04:47.506Z,19.80
2018-08-13T23:07:18.641Z,19.80
2018-08-13T23:09:49.550Z,19.80
2018-08-13T23:12:21.701Z,19.90
2018-08-13T23:14:53.772Z,19.90
2018-08-13T23:17:26.917Z,19.90
2018-08-13T23:19:59.420Z,19.90
2018-08-13T23:23:03.884Z,19.90
2018-08-13T23:25:35.868Z,19.90
2018-08-13T23:28:13.391Z,19.90
2018-08-13T23:30:44.326Z,20.00
2018-08-13T23:33:15.211Z,19.90
2018-08-13T23:35:48.155Z,19.90
2018-08-13T23:38:18.682Z,19.90
2018-08-13T23:40:50.193Z,19.90
2018-08-13T23:43:21.234Z,19.90
2018-08-13T23:45:52.657Z,19.90
2018-08-13T23:48:23.504Z,19.90
2018-08-13T23:50:54.783Z,19.90
2018-08-13T23:53:26.086Z,19.90
2018-08-13T23:55:58.545Z,19.90
2018-08-13T23:58:32.190Z,19.90
